LFLS/GNB METAR and TAF weather

Enter ICAO airport designator
Station Type Date Time Source
LFLS METAR 2020/01/20 21:30 UTC NOAA

LFLS 202130Z AUTO VRB02KT 9000 NSC M01/M03 Q1037


Station Type Date Time Source
LFLS Decoded METAR 2020/01/20 21:30 UTC NOAA

Grenoble / St. Geoirs, France (LFLS) 45-22N 005-20E 386M
Jan 20, 2020 - 04:30 PM EST / 2020.01.20 2130 UTC
Wind: Variable at 2 MPH (2 KT):0
Visibility: 5 mile(s):0
Temperature: 30 F (-1 C)
Dew Point: 26 F (-3 C)
Relative Humidity: 86%
Pressure (altimeter): 30.62 in. Hg (1037 hPa)
ob: LFLS 202130Z AUTO VRB02KT 9000 NSC M01/M03 Q1037
cycle: 21

Station Type Date Time Source
LFLS TAF 2020/01/20 20:16 UTC NOAA

TAF LFLS 202012Z 2020/2115 CNL

Example: see airport list